sensor_id;sensor_type;location;lat;lon;timestamp;P1;durP1;ratioP1;P2;durP2;ratioP2
69569;SDS011;56781;42.292;23.146;2022-11-22T00:00:43;12.68;;;5.72;;
69569;SDS011;56781;42.292;23.146;2022-11-22T00:03:10;14.95;;;7.28;;
69569;SDS011;56781;42.292;23.146;2022-11-22T00:05:39;9.15;;;4.10;;
69569;SDS011;56781;42.292;23.146;2022-11-22T00:08:06;9.37;;;4.07;;
69569;SDS011;56781;42.292;23.146;2022-11-22T00:10:40;11.15;;;5.32;;
69569;SDS011;56781;42.292;23.146;2022-11-22T00:13:09;10.35;;;5.45;;
69569;SDS011;56781;42.292;23.146;2022-11-22T00:15:36;8.57;;;3.78;;
69569;SDS011;56781;42.292;23.146;2022-11-22T00:18:03;8.35;;;3.80;;
69569;SDS011;56781;42.292;23.146;2022-11-22T00:20:33;8.53;;;3.63;;
69569;SDS011;56781;42.292;23.146;2022-11-22T00:23:01;10.68;;;4.03;;
69569;SDS011;56781;42.292;23.146;2022-11-22T00:25:28;9.40;;;4.18;;
69569;SDS011;56781;42.292;23.146;2022-11-22T00:27:56;11.07;;;4.47;;
69569;SDS011;56781;42.292;23.146;2022-11-22T00:30:23;9.02;;;4.00;;
69569;SDS011;56781;42.292;23.146;2022-11-22T00:32:50;10.27;;;4.50;;
69569;SDS011;56781;42.292;23.146;2022-11-22T00:35:17;9.05;;;3.92;;
69569;SDS011;56781;42.292;23.146;2022-11-22T00:37:44;7.80;;;3.70;;
69569;SDS011;56781;42.292;23.146;2022-11-22T00:40:11;8.95;;;3.42;;
69569;SDS011;56781;42.292;23.146;2022-11-22T00:42:38;10.30;;;4.07;;
69569;SDS011;56781;42.292;23.146;2022-11-22T00:45:06;8.07;;;4.00;;
69569;SDS011;56781;42.292;23.146;2022-11-22T00:47:38;7.90;;;3.55;;
69569;SDS011;56781;42.292;23.146;2022-11-22T00:50:05;7.40;;;3.75;;
69569;SDS011;56781;42.292;23.146;2022-11-22T00:52:33;9.85;;;4.15;;
69569;SDS011;56781;42.292;23.146;2022-11-22T00:55:00;8.45;;;4.00;;
69569;SDS011;56781;42.292;23.146;2022-11-22T00:57:27;7.53;;;3.70;;
69569;SDS011;56781;42.292;23.146;2022-11-22T00:59:54;10.20;;;4.88;;
69569;SDS011;56781;42.292;23.146;2022-11-22T01:02:21;11.93;;;6.07;;
69569;SDS011;56781;42.292;23.146;2022-11-22T01:04:48;12.40;;;5.40;;
69569;SDS011;56781;42.292;23.146;2022-11-22T01:07:16;11.18;;;5.78;;
69569;SDS011;56781;42.292;23.146;2022-11-22T01:09:43;13.77;;;5.30;;
69569;SDS011;56781;42.292;23.146;2022-11-22T01:12:10;7.93;;;4.30;;
69569;SDS011;56781;42.292;23.146;2022-11-22T01:14:37;9.32;;;4.60;;
69569;SDS011;56781;42.292;23.146;2022-11-22T01:17:04;9.55;;;4.53;;
69569;SDS011;56781;42.292;23.146;2022-11-22T01:19:35;10.23;;;4.78;;
69569;SDS011;56781;42.292;23.146;2022-11-22T01:22:02;8.43;;;4.60;;
69569;SDS011;56781;42.292;23.146;2022-11-22T01:24:31;14.77;;;6.60;;
69569;SDS011;56781;42.292;23.146;2022-11-22T01:26:58;8.10;;;3.80;;
69569;SDS011;56781;42.292;23.146;2022-11-22T01:29:26;7.35;;;3.40;;
69569;SDS011;56781;42.292;23.146;2022-11-22T01:31:54;8.63;;;3.80;;
69569;SDS011;56781;42.292;23.146;2022-11-22T01:34:21;15.60;;;7.13;;
69569;SDS011;56781;42.292;23.146;2022-11-22T01:36:48;13.63;;;5.85;;
69569;SDS011;56781;42.292;23.146;2022-11-22T01:39:15;11.95;;;5.18;;
69569;SDS011;56781;42.292;23.146;2022-11-22T01:41:42;11.15;;;5.38;;
69569;SDS011;56781;42.292;23.146;2022-11-22T01:44:20;9.02;;;4.32;;
69569;SDS011;56781;42.292;23.146;2022-11-22T01:47:03;8.07;;;3.77;;
69569;SDS011;56781;42.292;23.146;2022-11-22T01:52:18;10.88;;;5.47;;
69569;SDS011;56781;42.292;23.146;2022-11-22T01:54:51;12.80;;;5.15;;
69569;SDS011;56781;42.292;23.146;2022-11-22T01:57:25;9.45;;;3.88;;
69569;SDS011;56781;42.292;23.146;2022-11-22T01:59:58;11.90;;;4.97;;
69569;SDS011;56781;42.292;23.146;2022-11-22T02:02:35;9.05;;;3.95;;
69569;SDS011;56781;42.292;23.146;2022-11-22T02:05:14;8.63;;;3.85;;
69569;SDS011;56781;42.292;23.146;2022-11-22T02:08:18;13.57;;;6.25;;
69569;SDS011;56781;42.292;23.146;2022-11-22T02:11:00;10.65;;;5.07;;
69569;SDS011;56781;42.292;23.146;2022-11-22T02:13:28;10.00;;;4.53;;
69569;SDS011;56781;42.292;23.146;2022-11-22T02:16:02;13.60;;;6.70;;
69569;SDS011;56781;42.292;23.146;2022-11-22T02:18:35;12.48;;;5.88;;
69569;SDS011;56781;42.292;23.146;2022-11-22T02:21:03;15.55;;;6.85;;
69569;SDS011;56781;42.292;23.146;2022-11-22T02:23:42;11.77;;;5.35;;
69569;SDS011;56781;42.292;23.146;2022-11-22T02:26:18;11.03;;;5.20;;
69569;SDS011;56781;42.292;23.146;2022-11-22T02:28:49;11.55;;;4.53;;
69569;SDS011;56781;42.292;23.146;2022-11-22T02:31:38;13.93;;;5.57;;
69569;SDS011;56781;42.292;23.146;2022-11-22T02:34:12;13.73;;;4.85;;
69569;SDS011;56781;42.292;23.146;2022-11-22T02:36:43;12.95;;;5.38;;
69569;SDS011;56781;42.292;23.146;2022-11-22T02:39:17;11.03;;;4.60;;
69569;SDS011;56781;42.292;23.146;2022-11-22T02:41:48;15.40;;;5.45;;
69569;SDS011;56781;42.292;23.146;2022-11-22T02:44:19;14.23;;;5.05;;
69569;SDS011;56781;42.292;23.146;2022-11-22T02:46:48;13.10;;;5.07;;
69569;SDS011;56781;42.292;23.146;2022-11-22T02:49:19;11.30;;;4.50;;
69569;SDS011;56781;42.292;23.146;2022-11-22T02:51:48;8.57;;;3.93;;
69569;SDS011;56781;42.292;23.146;2022-11-22T02:54:18;9.07;;;3.58;;
69569;SDS011;56781;42.292;23.146;2022-11-22T02:56:46;9.23;;;4.00;;
69569;SDS011;56781;42.292;23.146;2022-11-22T02:59:13;10.65;;;4.30;;
69569;SDS011;56781;42.292;23.146;2022-11-22T03:01:40;10.43;;;4.10;;
69569;SDS011;56781;42.292;23.146;2022-11-22T03:04:10;9.43;;;4.10;;
69569;SDS011;56781;42.292;23.146;2022-11-22T03:06:51;9.32;;;3.70;;
69569;SDS011;56781;42.292;23.146;2022-11-22T03:09:22;9.88;;;3.83;;
69569;SDS011;56781;42.292;23.146;2022-11-22T03:11:51;11.15;;;4.85;;
69569;SDS011;56781;42.292;23.146;2022-11-22T03:14:18;29.10;;;11.98;;
69569;SDS011;56781;42.292;23.146;2022-11-22T03:16:46;18.43;;;7.63;;
69569;SDS011;56781;42.292;23.146;2022-11-22T03:19:15;17.13;;;5.63;;
69569;SDS011;56781;42.292;23.146;2022-11-22T03:21:42;15.32;;;5.60;;
69569;SDS011;56781;42.292;23.146;2022-11-22T03:24:10;16.08;;;6.30;;
69569;SDS011;56781;42.292;23.146;2022-11-22T03:26:39;16.55;;;7.28;;
69569;SDS011;56781;42.292;23.146;2022-11-22T03:29:06;11.13;;;4.60;;
69569;SDS011;56781;42.292;23.146;2022-11-22T03:31:35;12.02;;;4.45;;
69569;SDS011;56781;42.292;23.146;2022-11-22T03:34:14;12.20;;;4.30;;
69569;SDS011;56781;42.292;23.146;2022-11-22T03:36:42;8.80;;;3.50;;
69569;SDS011;56781;42.292;23.146;2022-11-22T03:39:10;9.43;;;4.10;;
69569;SDS011;56781;42.292;23.146;2022-11-22T03:41:38;8.77;;;4.23;;
69569;SDS011;56781;42.292;23.146;2022-11-22T03:44:10;9.55;;;4.20;;
69569;SDS011;56781;42.292;23.146;2022-11-22T03:46:38;10.00;;;4.03;;
69569;SDS011;56781;42.292;23.146;2022-11-22T03:49:07;13.85;;;5.80;;
69569;SDS011;56781;42.292;23.146;2022-11-22T03:51:38;18.38;;;7.60;;
69569;SDS011;56781;42.292;23.146;2022-11-22T03:54:14;13.80;;;5.33;;
69569;SDS011;56781;42.292;23.146;2022-11-22T03:56:44;18.85;;;6.28;;
69569;SDS011;56781;42.292;23.146;2022-11-22T03:59:11;24.00;;;9.80;;
69569;SDS011;56781;42.292;23.146;2022-11-22T04:01:38;14.32;;;5.80;;
69569;SDS011;56781;42.292;23.146;2022-11-22T04:04:10;12.18;;;4.90;;
69569;SDS011;56781;42.292;23.146;2022-11-22T04:06:46;12.50;;;5.47;;
69569;SDS011;56781;42.292;23.146;2022-11-22T04:09:15;17.33;;;7.68;;
69569;SDS011;56781;42.292;23.146;2022-11-22T04:11:43;9.75;;;4.72;;
69569;SDS011;56781;42.292;23.146;2022-11-22T04:14:10;10.18;;;4.53;;
69569;SDS011;56781;42.292;23.146;2022-11-22T04:16:56;13.35;;;6.60;;
69569;SDS011;56781;42.292;23.146;2022-11-22T04:19:27;11.03;;;5.53;;
69569;SDS011;56781;42.292;23.146;2022-11-22T04:21:58;10.20;;;5.00;;
69569;SDS011;56781;42.292;23.146;2022-11-22T04:24:25;17.63;;;8.95;;
69569;SDS011;56781;42.292;23.146;2022-11-22T04:27:10;10.00;;;4.50;;
69569;SDS011;56781;42.292;23.146;2022-11-22T04:29:39;12.90;;;4.80;;
69569;SDS011;56781;42.292;23.146;2022-11-22T04:32:07;36.93;;;13.47;;
69569;SDS011;56781;42.292;23.146;2022-11-22T04:34:53;85.32;;;22.60;;
69569;SDS011;56781;42.292;23.146;2022-11-22T04:37:20;63.67;;;19.23;;
69569;SDS011;56781;42.292;23.146;2022-11-22T04:39:47;24.98;;;8.50;;
69569;SDS011;56781;42.292;23.146;2022-11-22T04:42:14;7.93;;;3.50;;
69569;SDS011;56781;42.292;23.146;2022-11-22T04:44:59;10.67;;;3.70;;
69569;SDS011;56781;42.292;23.146;2022-11-22T04:47:26;25.40;;;9.63;;
69569;SDS011;56781;42.292;23.146;2022-11-22T04:50:15;23.80;;;9.43;;
69569;SDS011;56781;42.292;23.146;2022-11-22T04:53:05;61.67;;;19.58;;
69569;SDS011;56781;42.292;23.146;2022-11-22T04:55:33;81.03;;;21.83;;
69569;SDS011;56781;42.292;23.146;2022-11-22T04:58:00;26.63;;;9.03;;
69569;SDS011;56781;42.292;23.146;2022-11-22T05:00:29;42.50;;;12.43;;
69569;SDS011;56781;42.292;23.146;2022-11-22T05:02:57;21.77;;;7.78;;
69569;SDS011;56781;42.292;23.146;2022-11-22T05:05:24;17.63;;;6.95;;
69569;SDS011;56781;42.292;23.146;2022-11-22T05:07:52;21.13;;;6.63;;
69569;SDS011;56781;42.292;23.146;2022-11-22T05:10:19;25.87;;;7.13;;
69569;SDS011;56781;42.292;23.146;2022-11-22T05:12:52;64.38;;;9.38;;
69569;SDS011;56781;42.292;23.146;2022-11-22T05:15:19;59.83;;;9.27;;
69569;SDS011;56781;42.292;23.146;2022-11-22T05:17:46;39.40;;;5.55;;
69569;SDS011;56781;42.292;23.146;2022-11-22T05:20:13;43.25;;;5.70;;
69569;SDS011;56781;42.292;23.146;2022-11-22T05:22:41;81.20;;;6.50;;
69569;SDS011;56781;42.292;23.146;2022-11-22T05:25:26;36.08;;;6.28;;
69569;SDS011;56781;42.292;23.146;2022-11-22T05:27:53;32.45;;;7.07;;
69569;SDS011;56781;42.292;23.146;2022-11-22T05:30:20;29.30;;;5.55;;
69569;SDS011;56781;42.292;23.146;2022-11-22T05:32:47;49.22;;;12.90;;
69569;SDS011;56781;42.292;23.146;2022-11-22T05:35:15;84.57;;;19.47;;
69569;SDS011;56781;42.292;23.146;2022-11-22T05:37:42;33.10;;;9.60;;
69569;SDS011;56781;42.292;23.146;2022-11-22T05:40:09;20.00;;;6.28;;
69569;SDS011;56781;42.292;23.146;2022-11-22T05:42:37;20.17;;;6.55;;
69569;SDS011;56781;42.292;23.146;2022-11-22T05:45:04;51.42;;;16.13;;
69569;SDS011;56781;42.292;23.146;2022-11-22T05:47:34;33.27;;;10.60;;
69569;SDS011;56781;42.292;23.146;2022-11-22T05:50:02;25.73;;;7.70;;
69569;SDS011;56781;42.292;23.146;2022-11-22T05:52:29;31.42;;;10.05;;
69569;SDS011;56781;42.292;23.146;2022-11-22T05:54:57;47.08;;;13.13;;
69569;SDS011;56781;42.292;23.146;2022-11-22T05:57:24;29.73;;;10.23;;
69569;SDS011;56781;42.292;23.146;2022-11-22T05:59:51;60.47;;;17.03;;
69569;SDS011;56781;42.292;23.146;2022-11-22T06:02:18;123.20;;;29.83;;
69569;SDS011;56781;42.292;23.146;2022-11-22T06:04:46;53.90;;;17.42;;
69569;SDS011;56781;42.292;23.146;2022-11-22T06:07:13;49.20;;;15.70;;
69569;SDS011;56781;42.292;23.146;2022-11-22T06:09:40;39.15;;;11.70;;
69569;SDS011;56781;42.292;23.146;2022-11-22T06:12:07;39.33;;;13.07;;
69569;SDS011;56781;42.292;23.146;2022-11-22T06:14:35;30.60;;;10.57;;
69569;SDS011;56781;42.292;23.146;2022-11-22T06:17:08;48.50;;;16.58;;
69569;SDS011;56781;42.292;23.146;2022-11-22T06:19:35;55.25;;;21.23;;
69569;SDS011;56781;42.292;23.146;2022-11-22T06:22:03;80.40;;;28.30;;
69569;SDS011;56781;42.292;23.146;2022-11-22T06:24:30;53.80;;;21.73;;
69569;SDS011;56781;42.292;23.146;2022-11-22T06:26:57;48.83;;;19.23;;
69569;SDS011;56781;42.292;23.146;2022-11-22T06:29:24;46.45;;;18.25;;
69569;SDS011;56781;42.292;23.146;2022-11-22T06:31:51;42.08;;;16.42;;
69569;SDS011;56781;42.292;23.146;2022-11-22T06:34:18;41.42;;;15.15;;
69569;SDS011;56781;42.292;23.146;2022-11-22T06:36:45;64.40;;;24.77;;
69569;SDS011;56781;42.292;23.146;2022-11-22T06:39:12;63.55;;;22.05;;
69569;SDS011;56781;42.292;23.146;2022-11-22T06:41:39;55.03;;;18.75;;
69569;SDS011;56781;42.292;23.146;2022-11-22T06:44:07;48.17;;;17.35;;
69569;SDS011;56781;42.292;23.146;2022-11-22T06:46:35;32.25;;;11.25;;
69569;SDS011;56781;42.292;23.146;2022-11-22T06:49:03;26.20;;;11.07;;
69569;SDS011;56781;42.292;23.146;2022-11-22T06:51:30;26.20;;;10.60;;
69569;SDS011;56781;42.292;23.146;2022-11-22T06:53:58;24.48;;;10.13;;
69569;SDS011;56781;42.292;23.146;2022-11-22T06:56:30;31.55;;;11.57;;
69569;SDS011;56781;42.292;23.146;2022-11-22T06:59:06;33.20;;;14.60;;
69569;SDS011;56781;42.292;23.146;2022-11-22T07:01:34;34.43;;;16.57;;
69569;SDS011;56781;42.292;23.146;2022-11-22T07:04:02;30.83;;;14.23;;
69569;SDS011;56781;42.292;23.146;2022-11-22T07:06:31;28.15;;;12.38;;
69569;SDS011;56781;42.292;23.146;2022-11-22T07:09:00;24.55;;;10.77;;
69569;SDS011;56781;42.292;23.146;2022-11-22T07:11:28;23.77;;;9.57;;
69569;SDS011;56781;42.292;23.146;2022-11-22T07:13:57;23.33;;;9.43;;
69569;SDS011;56781;42.292;23.146;2022-11-22T07:16:33;26.13;;;8.70;;
69569;SDS011;56781;42.292;23.146;2022-11-22T07:19:01;29.55;;;9.15;;
69569;SDS011;56781;42.292;23.146;2022-11-22T07:21:28;19.25;;;6.82;;
69569;SDS011;56781;42.292;23.146;2022-11-22T07:23:56;23.27;;;8.60;;
69569;SDS011;56781;42.292;23.146;2022-11-22T07:26:23;14.17;;;6.43;;
69569;SDS011;56781;42.292;23.146;2022-11-22T07:28:51;19.15;;;7.03;;
69569;SDS011;56781;42.292;23.146;2022-11-22T07:31:19;13.60;;;6.25;;
69569;SDS011;56781;42.292;23.146;2022-11-22T07:33:46;17.65;;;7.72;;
69569;SDS011;56781;42.292;23.146;2022-11-22T07:36:16;23.15;;;9.00;;
69569;SDS011;56781;42.292;23.146;2022-11-22T07:38:45;27.50;;;10.73;;
69569;SDS011;56781;42.292;23.146;2022-11-22T07:41:14;26.80;;;9.88;;
69569;SDS011;56781;42.292;23.146;2022-11-22T07:43:41;27.25;;;11.25;;
69569;SDS011;56781;42.292;23.146;2022-11-22T07:46:17;22.27;;;9.30;;
69569;SDS011;56781;42.292;23.146;2022-11-22T07:48:55;28.65;;;11.60;;
69569;SDS011;56781;42.292;23.146;2022-11-22T07:51:23;16.27;;;7.47;;
69569;SDS011;56781;42.292;23.146;2022-11-22T07:53:51;15.07;;;7.10;;
69569;SDS011;56781;42.292;23.146;2022-11-22T07:56:18;16.83;;;7.47;;
69569;SDS011;56781;42.292;23.146;2022-11-22T07:58:45;23.55;;;9.52;;
69569;SDS011;56781;42.292;23.146;2022-11-22T08:01:13;19.25;;;7.72;;
69569;SDS011;56781;42.292;23.146;2022-11-22T08:03:42;23.23;;;7.37;;
69569;SDS011;56781;42.292;23.146;2022-11-22T08:06:11;21.05;;;7.03;;
69569;SDS011;56781;42.292;23.146;2022-11-22T08:08:39;21.13;;;7.65;;
69569;SDS011;56781;42.292;23.146;2022-11-22T08:11:06;14.07;;;6.72;;
69569;SDS011;56781;42.292;23.146;2022-11-22T08:13:34;15.45;;;7.10;;
69569;SDS011;56781;42.292;23.146;2022-11-22T08:16:06;15.37;;;6.33;;
69569;SDS011;56781;42.292;23.146;2022-11-22T08:18:35;13.65;;;6.35;;
69569;SDS011;56781;42.292;23.146;2022-11-22T08:21:07;15.70;;;6.68;;
69569;SDS011;56781;42.292;23.146;2022-11-22T08:23:36;16.42;;;6.75;;
69569;SDS011;56781;42.292;23.146;2022-11-22T08:26:04;14.23;;;6.80;;
69569;SDS011;56781;42.292;23.146;2022-11-22T08:28:32;12.27;;;6.40;;
69569;SDS011;56781;42.292;23.146;2022-11-22T08:31:01;18.58;;;6.82;;
69569;SDS011;56781;42.292;23.146;2022-11-22T08:33:34;16.33;;;6.55;;
69569;SDS011;56781;42.292;23.146;2022-11-22T08:36:01;17.40;;;6.15;;
69569;SDS011;56781;42.292;23.146;2022-11-22T08:38:28;22.25;;;8.30;;
69569;SDS011;56781;42.292;23.146;2022-11-22T08:40:55;18.53;;;7.90;;
69569;SDS011;56781;42.292;23.146;2022-11-22T08:43:23;20.23;;;8.90;;
69569;SDS011;56781;42.292;23.146;2022-11-22T08:45:54;29.55;;;12.68;;
69569;SDS011;56781;42.292;23.146;2022-11-22T08:48:25;23.38;;;9.73;;
69569;SDS011;56781;42.292;23.146;2022-11-22T08:50:54;21.65;;;9.65;;
69569;SDS011;56781;42.292;23.146;2022-11-22T08:53:23;33.93;;;9.87;;
69569;SDS011;56781;42.292;23.146;2022-11-22T08:55:51;30.98;;;9.75;;
69569;SDS011;56781;42.292;23.146;2022-11-22T08:58:18;17.05;;;7.60;;
69569;SDS011;56781;42.292;23.146;2022-11-22T09:00:46;22.67;;;8.68;;
69569;SDS011;56781;42.292;23.146;2022-11-22T09:03:13;24.13;;;8.43;;
69569;SDS011;56781;42.292;23.146;2022-11-22T09:05:40;20.30;;;8.57;;
69569;SDS011;56781;42.292;23.146;2022-11-22T09:08:27;14.85;;;5.97;;
69569;SDS011;56781;42.292;23.146;2022-11-22T09:11:01;16.63;;;7.25;;
69569;SDS011;56781;42.292;23.146;2022-11-22T09:13:35;15.52;;;6.32;;
69569;SDS011;56781;42.292;23.146;2022-11-22T09:16:06;12.18;;;5.88;;
69569;SDS011;56781;42.292;23.146;2022-11-22T09:18:35;11.17;;;5.70;;
69569;SDS011;56781;42.292;23.146;2022-11-22T09:21:04;10.10;;;4.70;;
69569;SDS011;56781;42.292;23.146;2022-11-22T09:23:32;10.85;;;4.88;;
69569;SDS011;56781;42.292;23.146;2022-11-22T09:26:07;12.95;;;6.07;;
69569;SDS011;56781;42.292;23.146;2022-11-22T09:28:36;12.52;;;5.65;;
69569;SDS011;56781;42.292;23.146;2022-11-22T09:31:05;14.40;;;5.77;;
69569;SDS011;56781;42.292;23.146;2022-11-22T09:33:34;13.77;;;5.85;;
69569;SDS011;56781;42.292;23.146;2022-11-22T09:36:03;10.82;;;5.40;;
69569;SDS011;56781;42.292;23.146;2022-11-22T09:38:32;13.00;;;6.28;;
69569;SDS011;56781;42.292;23.146;2022-11-22T09:41:01;16.13;;;7.40;;
69569;SDS011;56781;42.292;23.146;2022-11-22T09:43:42;13.53;;;5.80;;
69569;SDS011;56781;42.292;23.146;2022-11-22T09:54:44;17.30;;;7.72;;
69569;SDS011;56781;42.292;23.146;2022-11-22T09:57:23;13.00;;;6.10;;
69569;SDS011;56781;42.292;23.146;2022-11-22T10:00:00;13.10;;;5.72;;
69569;SDS011;56781;42.292;23.146;2022-11-22T10:02:39;10.23;;;5.38;;
69569;SDS011;56781;42.292;23.146;2022-11-22T10:05:27;12.35;;;5.53;;
69569;SDS011;56781;42.292;23.146;2022-11-22T10:08:05;12.82;;;5.00;;
69569;SDS011;56781;42.292;23.146;2022-11-22T10:10:46;11.17;;;5.43;;
69569;SDS011;56781;42.292;23.146;2022-11-22T10:13:21;13.77;;;5.90;;
69569;SDS011;56781;42.292;23.146;2022-11-22T10:15:59;14.27;;;6.10;;
69569;SDS011;56781;42.292;23.146;2022-11-22T10:21:11;15.27;;;6.10;;
69569;SDS011;56781;42.292;23.146;2022-11-22T10:23:42;18.33;;;6.70;;
69569;SDS011;56781;42.292;23.146;2022-11-22T10:31:44;29.58;;;12.90;;
69569;SDS011;56781;42.292;23.146;2022-11-22T10:37:22;18.67;;;8.43;;
69569;SDS011;56781;42.292;23.146;2022-11-22T10:46:15;141.80;;;53.10;;
69569;SDS011;56781;42.292;23.146;2022-11-22T11:00:17;45.97;;;20.15;;
69569;SDS011;56781;42.292;23.146;2022-11-22T11:05:48;24.50;;;11.53;;
69569;SDS011;56781;42.292;23.146;2022-11-22T11:08:40;27.05;;;11.20;;
69569;SDS011;56781;42.292;23.146;2022-11-22T11:11:31;26.65;;;10.80;;
69569;SDS011;56781;42.292;23.146;2022-11-22T11:14:01;22.35;;;10.13;;
69569;SDS011;56781;42.292;23.146;2022-11-22T11:16:34;21.85;;;10.63;;
69569;SDS011;56781;42.292;23.146;2022-11-22T11:21:34;22.23;;;10.52;;
69569;SDS011;56781;42.292;23.146;2022-11-22T11:24:01;24.02;;;12.75;;
69569;SDS011;56781;42.292;23.146;2022-11-22T11:26:33;23.88;;;9.63;;
69569;SDS011;56781;42.292;23.146;2022-11-22T11:31:47;34.77;;;12.90;;
69569;SDS011;56781;42.292;23.146;2022-11-22T11:34:30;15.55;;;8.27;;
69569;SDS011;56781;42.292;23.146;2022-11-22T11:36:59;14.45;;;7.35;;
69569;SDS011;56781;42.292;23.146;2022-11-22T11:39:31;13.80;;;7.18;;
69569;SDS011;56781;42.292;23.146;2022-11-22T11:42:00;20.00;;;9.70;;
69569;SDS011;56781;42.292;23.146;2022-11-22T11:44:46;17.20;;;8.13;;
69569;SDS011;56781;42.292;23.146;2022-11-22T11:47:30;15.50;;;7.57;;
69569;SDS011;56781;42.292;23.146;2022-11-22T11:49:58;13.27;;;6.88;;
69569;SDS011;56781;42.292;23.146;2022-11-22T11:52:25;17.98;;;9.05;;
69569;SDS011;56781;42.292;23.146;2022-11-22T11:54:55;17.98;;;8.50;;
69569;SDS011;56781;42.292;23.146;2022-11-22T11:57:32;15.73;;;6.83;;
69569;SDS011;56781;42.292;23.146;2022-11-22T12:00:03;15.25;;;9.30;;
69569;SDS011;56781;42.292;23.146;2022-11-22T12:05:01;29.35;;;10.15;;
69569;SDS011;56781;42.292;23.146;2022-11-22T12:10:02;28.80;;;11.50;;
69569;SDS011;56781;42.292;23.146;2022-11-22T12:12:49;16.83;;;7.32;;
69569;SDS011;56781;42.292;23.146;2022-11-22T12:21:25;20.45;;;8.38;;
69569;SDS011;56781;42.292;23.146;2022-11-22T12:27:12;81.10;;;28.48;;
69569;SDS011;56781;42.292;23.146;2022-11-22T12:29:40;110.60;;;40.42;;
69569;SDS011;56781;42.292;23.146;2022-11-22T12:34:59;83.90;;;30.92;;
69569;SDS011;56781;42.292;23.146;2022-11-22T12:37:29;87.33;;;35.60;;
69569;SDS011;56781;42.292;23.146;2022-11-22T12:40:04;61.13;;;27.63;;
69569;SDS011;56781;42.292;23.146;2022-11-22T12:42:42;95.68;;;43.47;;
69569;SDS011;56781;42.292;23.146;2022-11-22T12:47:59;64.10;;;26.88;;
69569;SDS011;56781;42.292;23.146;2022-11-22T12:50:40;56.93;;;25.80;;
69569;SDS011;56781;42.292;23.146;2022-11-22T12:53:13;34.30;;;15.00;;
69569;SDS011;56781;42.292;23.146;2022-11-22T12:56:03;53.63;;;25.23;;
69569;SDS011;56781;42.292;23.146;2022-11-22T12:58:45;39.88;;;16.50;;
69569;SDS011;56781;42.292;23.146;2022-11-22T13:09:11;32.05;;;14.55;;
69569;SDS011;56781;42.292;23.146;2022-11-22T13:14:37;37.10;;;13.85;;
69569;SDS011;56781;42.292;23.146;2022-11-22T13:17:08;35.67;;;12.43;;
69569;SDS011;56781;42.292;23.146;2022-11-22T13:19:40;33.97;;;13.30;;
69569;SDS011;56781;42.292;23.146;2022-11-22T13:22:21;35.40;;;14.05;;
69569;SDS011;56781;42.292;23.146;2022-11-22T13:28:04;14.48;;;5.57;;
69569;SDS011;56781;42.292;23.146;2022-11-22T13:30:38;11.13;;;4.97;;
69569;SDS011;56781;42.292;23.146;2022-11-22T13:33:09;83.93;;;32.55;;
69569;SDS011;56781;42.292;23.146;2022-11-22T13:35:50;54.70;;;20.77;;
69569;SDS011;56781;42.292;23.146;2022-11-22T13:38:17;20.27;;;8.45;;
69569;SDS011;56781;42.292;23.146;2022-11-22T13:40:49;18.88;;;7.55;;
69569;SDS011;56781;42.292;23.146;2022-11-22T13:45:51;22.02;;;8.85;;
69569;SDS011;56781;42.292;23.146;2022-11-22T13:51:06;37.20;;;17.20;;
69569;SDS011;56781;42.292;23.146;2022-11-22T13:53:38;22.92;;;10.45;;
69569;SDS011;56781;42.292;23.146;2022-11-22T14:06:46;10.98;;;5.00;;
69569;SDS011;56781;42.292;23.146;2022-11-22T14:17:40;4.45;;;1.65;;
69569;SDS011;56781;42.292;23.146;2022-11-22T14:23:23;67.80;;;23.53;;
69569;SDS011;56781;42.292;23.146;2022-11-22T14:29:16;30.38;;;13.02;;
69569;SDS011;56781;42.292;23.146;2022-11-22T14:48:00;33.72;;;18.10;;
69569;SDS011;56781;42.292;23.146;2022-11-22T14:52:59;25.70;;;13.35;;
69569;SDS011;56781;42.292;23.146;2022-11-22T14:55:38;23.23;;;13.10;;
69569;SDS011;56781;42.292;23.146;2022-11-22T14:58:06;26.30;;;14.63;;
69569;SDS011;56781;42.292;23.146;2022-11-22T15:07:03;45.20;;;20.98;;
69569;SDS011;56781;42.292;23.146;2022-11-22T15:10:42;41.03;;;18.70;;
69569;SDS011;56781;42.292;23.146;2022-11-22T15:16:09;11.85;;;4.63;;
69569;SDS011;56781;42.292;23.146;2022-11-22T15:22:19;18.45;;;8.88;;
69569;SDS011;56781;42.292;23.146;2022-11-22T15:25:16;11.65;;;5.43;;
69569;SDS011;56781;42.292;23.146;2022-11-22T15:28:05;14.85;;;7.55;;
69569;SDS011;56781;42.292;23.146;2022-11-22T15:30:59;8.13;;;4.13;;
69569;SDS011;56781;42.292;23.146;2022-11-22T15:33:54;7.07;;;4.70;;
69569;SDS011;56781;42.292;23.146;2022-11-22T15:39:32;5.00;;;1.92;;
69569;SDS011;56781;42.292;23.146;2022-11-22T15:42:21;5.70;;;2.97;;
69569;SDS011;56781;42.292;23.146;2022-11-22T15:45:12;12.50;;;5.93;;
69569;SDS011;56781;42.292;23.146;2022-11-22T15:48:00;57.77;;;23.20;;
69569;SDS011;56781;42.292;23.146;2022-11-22T15:51:04;9.30;;;4.75;;
69569;SDS011;56781;42.292;23.146;2022-11-22T15:56:52;21.30;;;8.90;;
69569;SDS011;56781;42.292;23.146;2022-11-22T15:59:37;15.80;;;8.75;;
69569;SDS011;56781;42.292;23.146;2022-11-22T16:02:09;8.50;;;5.10;;
69569;SDS011;56781;42.292;23.146;2022-11-22T16:04:49;8.77;;;4.50;;
69569;SDS011;56781;42.292;23.146;2022-11-22T16:07:40;10.68;;;5.80;;
69569;SDS011;56781;42.292;23.146;2022-11-22T16:10:18;16.63;;;6.00;;
69569;SDS011;56781;42.292;23.146;2022-11-22T16:12:52;31.77;;;13.88;;
69569;SDS011;56781;42.292;23.146;2022-11-22T16:15:30;24.20;;;9.37;;
69569;SDS011;56781;42.292;23.146;2022-11-22T16:20:59;6.50;;;3.22;;
69569;SDS011;56781;42.292;23.146;2022-11-22T16:23:28;8.15;;;3.80;;
69569;SDS011;56781;42.292;23.146;2022-11-22T16:28:52;30.27;;;9.57;;
69569;SDS011;56781;42.292;23.146;2022-11-22T16:31:27;35.08;;;11.25;;
69569;SDS011;56781;42.292;23.146;2022-11-22T16:33:55;25.65;;;9.25;;
69569;SDS011;56781;42.292;23.146;2022-11-22T16:36:23;35.10;;;12.65;;
69569;SDS011;56781;42.292;23.146;2022-11-22T16:38:54;30.45;;;11.32;;
69569;SDS011;56781;42.292;23.146;2022-11-22T16:41:22;23.07;;;8.30;;
69569;SDS011;56781;42.292;23.146;2022-11-22T16:43:55;11.00;;;4.53;;
69569;SDS011;56781;42.292;23.146;2022-11-22T16:46:26;9.07;;;3.83;;
69569;SDS011;56781;42.292;23.146;2022-11-22T16:48:53;13.88;;;5.57;;
69569;SDS011;56781;42.292;23.146;2022-11-22T16:51:22;32.90;;;12.10;;
69569;SDS011;56781;42.292;23.146;2022-11-22T16:53:51;25.80;;;11.63;;
69569;SDS011;56781;42.292;23.146;2022-11-22T16:56:19;39.92;;;15.95;;
69569;SDS011;56781;42.292;23.146;2022-11-22T16:58:49;28.98;;;11.68;;
69569;SDS011;56781;42.292;23.146;2022-11-22T17:01:18;30.05;;;12.30;;
69569;SDS011;56781;42.292;23.146;2022-11-22T17:03:48;78.55;;;31.13;;
69569;SDS011;56781;42.292;23.146;2022-11-22T17:06:18;89.13;;;36.43;;
69569;SDS011;56781;42.292;23.146;2022-11-22T17:08:48;105.45;;;43.17;;
69569;SDS011;56781;42.292;23.146;2022-11-22T17:11:17;112.15;;;46.63;;
69569;SDS011;56781;42.292;23.146;2022-11-22T17:13:45;82.88;;;37.30;;
69569;SDS011;56781;42.292;23.146;2022-11-22T17:16:13;73.50;;;25.15;;
69569;SDS011;56781;42.292;23.146;2022-11-22T17:18:43;40.53;;;16.83;;
69569;SDS011;56781;42.292;23.146;2022-11-22T17:21:27;26.83;;;12.38;;